sensor_id;sensor_type;location;lat;lon;timestamp;temperature;humidity
15290;DHT22;7746;50.554;7.108;2023-03-11T15:32:47;9.73;43.05
15290;DHT22;7746;50.554;7.108;2023-03-11T15:35:18;9.24;43.98
15290;DHT22;7746;50.554;7.108;2023-03-11T15:37:47;10.44;41.56
15290;DHT22;7746;50.554;7.108;2023-03-11T15:42:47;11.51;39.08
15290;DHT22;7746;50.554;7.108;2023-03-11T15:45:16;12.63;36.99
15290;DHT22;7746;50.554;7.108;2023-03-11T15:47:46;12.46;37.92
15290;DHT22;7746;50.554;7.108;2023-03-11T15:50:23;12.19;37.43
15290;DHT22;7746;50.554;7.108;2023-03-11T15:52:54;12.39;37.20
15290;DHT22;7746;50.554;7.108;2023-03-11T15:55:21;12.21;37.84
15290;DHT22;7746;50.554;7.108;2023-03-11T15:57:50;11.89;37.95
15290;DHT22;7746;50.554;7.108;2023-03-11T16:00:22;12.49;37.20
15290;DHT22;7746;50.554;7.108;2023-03-11T16:12:47;6.29;50.68
15290;DHT22;7746;50.554;7.108;2023-03-11T16:15:22;6.25;51.38
15290;DHT22;7746;50.554;7.108;2023-03-11T16:17:53;6.10;51.52
15290;DHT22;7746;50.554;7.108;2023-03-11T16:20:22;6.83;51.74
15290;DHT22;7746;50.554;7.108;2023-03-11T16:25:22;8.36;44.62
15290;DHT22;7746;50.554;7.108;2023-03-11T16:27:50;7.86;45.64
15290;DHT22;7746;50.554;7.108;2023-03-11T16:30:19;7.15;47.50
15290;DHT22;7746;50.554;7.108;2023-03-11T16:32:46;6.50;50.12
15290;DHT22;7746;50.554;7.108;2023-03-11T16:35:15;6.09;50.50
15290;DHT22;7746;50.554;7.108;2023-03-11T16:37:43;5.81;52.69
15290;DHT22;7746;50.554;7.108;2023-03-11T16:40:12;5.40;53.14
15290;DHT22;7746;50.554;7.108;2023-03-11T16:42:40;5.51;53.64
15290;DHT22;7746;50.554;7.108;2023-03-11T16:45:09;5.40;53.41
15290;DHT22;7746;50.554;7.108;2023-03-11T16:47:36;5.23;54.46
15290;DHT22;7746;50.554;7.108;2023-03-11T16:50:04;5.18;54.17
15290;DHT22;7746;50.554;7.108;2023-03-11T16:52:33;5.00;53.80
15290;DHT22;7746;50.554;7.108;2023-03-11T16:55:00;4.82;54.71
15290;DHT22;7746;50.554;7.108;2023-03-11T16:57:27;4.79;55.02
15290;DHT22;7746;50.554;7.108;2023-03-11T16:59:54;4.61;55.72
15290;DHT22;7746;50.554;7.108;2023-03-11T17:02:22;4.67;55.90
15290;DHT22;7746;50.554;7.108;2023-03-11T17:04:49;4.58;56.12
15290;DHT22;7746;50.554;7.108;2023-03-11T17:07:17;4.51;57.19
15290;DHT22;7746;50.554;7.108;2023-03-11T17:09:45;4.38;57.49
15290;DHT22;7746;50.554;7.108;2023-03-11T17:12:12;4.33;57.92
15290;DHT22;7746;50.554;7.108;2023-03-11T17:14:43;4.26;58.42
15290;DHT22;7746;50.554;7.108;2023-03-11T17:17:10;4.20;59.42
15290;DHT22;7746;50.554;7.108;2023-03-11T17:19:37;4.10;60.51
15290;DHT22;7746;50.554;7.108;2023-03-11T17:22:04;3.99;62.38
15290;DHT22;7746;50.554;7.108;2023-03-11T17:24:32;3.83;62.88
15290;DHT22;7746;50.554;7.108;2023-03-11T17:27:00;3.76;63.09
15290;DHT22;7746;50.554;7.108;2023-03-11T17:29:27;3.61;64.31
15290;DHT22;7746;50.554;7.108;2023-03-11T17:31:54;3.44;64.93
15290;DHT22;7746;50.554;7.108;2023-03-11T17:34:22;3.26;66.04
15290;DHT22;7746;50.554;7.108;2023-03-11T17:36:50;3.08;67.01
15290;DHT22;7746;50.554;7.108;2023-03-11T17:39:17;2.96;68.56
15290;DHT22;7746;50.554;7.108;2023-03-11T17:41:45;2.79;69.21
15290;DHT22;7746;50.554;7.108;2023-03-11T17:44:14;2.66;69.38
15290;DHT22;7746;50.554;7.108;2023-03-11T17:46:41;2.56;69.73
15290;DHT22;7746;50.554;7.108;2023-03-11T17:49:12;2.41;70.30
15290;DHT22;7746;50.554;7.108;2023-03-11T17:51:40;2.22;72.10
15290;DHT22;7746;50.554;7.108;2023-03-11T17:54:07;2.04;72.81
15290;DHT22;7746;50.554;7.108;2023-03-11T17:56:35;1.93;73.22
15290;DHT22;7746;50.554;7.108;2023-03-11T17:59:02;1.86;73.45
15290;DHT22;7746;50.554;7.108;2023-03-11T18:01:30;1.82;73.99
15290;DHT22;7746;50.554;7.108;2023-03-11T18:03:58;1.83;73.43
15290;DHT22;7746;50.554;7.108;2023-03-11T18:06:26;1.70;74.15
15290;DHT22;7746;50.554;7.108;2023-03-11T18:08:53;1.65;73.93
15290;DHT22;7746;50.554;7.108;2023-03-11T18:11:23;1.60;74.56
15290;DHT22;7746;50.554;7.108;2023-03-11T18:13:51;1.55;75.08
15290;DHT22;7746;50.554;7.108;2023-03-11T18:16:19;1.55;75.27
15290;DHT22;7746;50.554;7.108;2023-03-11T18:18:49;1.48;75.93
15290;DHT22;7746;50.554;7.108;2023-03-11T18:21:18;1.34;76.51
15290;DHT22;7746;50.554;7.108;2023-03-11T18:23:45;1.24;76.60
15290;DHT22;7746;50.554;7.108;2023-03-11T18:26:14;1.12;77.20
15290;DHT22;7746;50.554;7.108;2023-03-11T18:28:42;1.07;77.47
15290;DHT22;7746;50.554;7.108;2023-03-11T18:31:11;0.88;78.45
15290;DHT22;7746;50.554;7.108;2023-03-11T18:33:39;0.80;78.50
15290;DHT22;7746;50.554;7.108;2023-03-11T18:36:13;0.66;79.47
15290;DHT22;7746;50.554;7.108;2023-03-11T18:38:41;0.66;80.42
15290;DHT22;7746;50.554;7.108;2023-03-11T18:41:08;0.66;79.84
15290;DHT22;7746;50.554;7.108;2023-03-11T18:43:35;0.60;80.14
15290;DHT22;7746;50.554;7.108;2023-03-11T18:46:06;0.57;80.10
15290;DHT22;7746;50.554;7.108;2023-03-11T18:48:34;0.53;80.67
15290;DHT22;7746;50.554;7.108;2023-03-11T18:51:01;0.46;81.53
15290;DHT22;7746;50.554;7.108;2023-03-11T18:53:30;0.32;81.63
15290;DHT22;7746;50.554;7.108;2023-03-11T18:55:58;0.35;81.08
15290;DHT22;7746;50.554;7.108;2023-03-11T18:58:26;0.29;79.38
15290;DHT22;7746;50.554;7.108;2023-03-11T19:00:53;0.25;78.93
15290;DHT22;7746;50.554;7.108;2023-03-11T19:03:20;0.15;79.59
15290;DHT22;7746;50.554;7.108;2023-03-11T19:05:48;0.05;80.24
15290;DHT22;7746;50.554;7.108;2023-03-11T19:08:17;-0.03;80.47
15290;DHT22;7746;50.554;7.108;2023-03-11T19:10:46;-0.05;80.81
15290;DHT22;7746;50.554;7.108;2023-03-11T19:13:13;-0.03;81.61
15290;DHT22;7746;50.554;7.108;2023-03-11T19:15:44;-0.10;81.68
15290;DHT22;7746;50.554;7.108;2023-03-11T19:18:11;-0.16;81.57
15290;DHT22;7746;50.554;7.108;2023-03-11T19:20:39;-0.10;81.90
15290;DHT22;7746;50.554;7.108;2023-03-11T19:23:06;-0.05;82.03
15290;DHT22;7746;50.554;7.108;2023-03-11T19:25:34;-0.20;82.89
15290;DHT22;7746;50.554;7.108;2023-03-11T19:28:03;-0.26;83.05
15290;DHT22;7746;50.554;7.108;2023-03-11T19:30:30;-0.22;83.37
15290;DHT22;7746;50.554;7.108;2023-03-11T19:32:57;-0.26;83.45
15290;DHT22;7746;50.554;7.108;2023-03-11T19:35:24;-0.26;83.46
15290;DHT22;7746;50.554;7.108;2023-03-11T19:37:51;-0.29;84.08
15290;DHT22;7746;50.554;7.108;2023-03-11T19:40:22;-0.43;84.09
15290;DHT22;7746;50.554;7.108;2023-03-11T19:42:49;-0.47;84.20
15290;DHT22;7746;50.554;7.108;2023-03-11T19:45:18;-0.57;84.37
15290;DHT22;7746;50.554;7.108;2023-03-11T19:47:45;-0.57;84.65
15290;DHT22;7746;50.554;7.108;2023-03-11T19:50:16;-0.60;85.49
15290;DHT22;7746;50.554;7.108;2023-03-11T19:52:43;-0.53;85.37
15290;DHT22;7746;50.554;7.108;2023-03-11T19:55:10;-0.53;84.73
15290;DHT22;7746;50.554;7.108;2023-03-11T19:57:37;-0.50;84.70
15290;DHT22;7746;50.554;7.108;2023-03-11T20:00:06;-0.55;84.90
15290;DHT22;7746;50.554;7.108;2023-03-11T20:02:35;-0.62;85.23
15290;DHT22;7746;50.554;7.108;2023-03-11T20:05:02;-0.64;85.63
15290;DHT22;7746;50.554;7.108;2023-03-11T20:07:29;-0.62;85.75
15290;DHT22;7746;50.554;7.108;2023-03-11T20:09:57;-0.61;85.73
15290;DHT22;7746;50.554;7.108;2023-03-11T20:12:24;-0.62;85.70
15290;DHT22;7746;50.554;7.108;2023-03-11T20:14:51;-0.67;85.50
15290;DHT22;7746;50.554;7.108;2023-03-11T20:17:18;-0.67;85.49
15290;DHT22;7746;50.554;7.108;2023-03-11T20:19:47;-0.71;85.71
15290;DHT22;7746;50.554;7.108;2023-03-11T20:22:14;-0.75;85.33
15290;DHT22;7746;50.554;7.108;2023-03-11T20:24:41;-0.79;85.73
15290;DHT22;7746;50.554;7.108;2023-03-11T20:27:09;-0.85;85.77
15290;DHT22;7746;50.554;7.108;2023-03-11T20:29:36;-0.92;85.83
15290;DHT22;7746;50.554;7.108;2023-03-11T20:32:04;-0.95;86.67
15290;DHT22;7746;50.554;7.108;2023-03-11T20:34:31;-1.00;86.48
15290;DHT22;7746;50.554;7.108;2023-03-11T20:36:59;-0.96;86.59
15290;DHT22;7746;50.554;7.108;2023-03-11T20:39:27;-1.09;86.51
15290;DHT22;7746;50.554;7.108;2023-03-11T20:41:54;-1.09;86.60
15290;DHT22;7746;50.554;7.108;2023-03-11T20:44:21;-1.06;86.48
15290;DHT22;7746;50.554;7.108;2023-03-11T20:46:48;-1.09;86.86
15290;DHT22;7746;50.554;7.108;2023-03-11T20:49:15;-1.12;86.68
15290;DHT22;7746;50.554;7.108;2023-03-11T20:51:42;-1.09;86.92
15290;DHT22;7746;50.554;7.108;2023-03-11T20:54:14;-1.15;87.77
15290;DHT22;7746;50.554;7.108;2023-03-11T20:56:41;-1.16;87.97
15290;DHT22;7746;50.554;7.108;2023-03-11T20:59:11;-1.17;87.67
15290;DHT22;7746;50.554;7.108;2023-03-11T21:01:39;-1.20;87.95
15290;DHT22;7746;50.554;7.108;2023-03-11T21:04:06;-1.22;87.82
15290;DHT22;7746;50.554;7.108;2023-03-11T21:06:35;-1.26;87.94
15290;DHT22;7746;50.554;7.108;2023-03-11T21:09:05;-1.30;87.86
15290;DHT22;7746;50.554;7.108;2023-03-11T21:11:34;-1.29;87.93
15290;DHT22;7746;50.554;7.108;2023-03-11T21:14:01;-1.27;88.27
15290;DHT22;7746;50.554;7.108;2023-03-11T21:16:29;-1.36;88.37
15290;DHT22;7746;50.554;7.108;2023-03-11T21:18:56;-1.39;88.70
15290;DHT22;7746;50.554;7.108;2023-03-11T21:21:24;-1.39;88.56
15290;DHT22;7746;50.554;7.108;2023-03-11T21:23:51;-1.33;88.43
15290;DHT22;7746;50.554;7.108;2023-03-11T21:26:18;-1.22;88.23
15290;DHT22;7746;50.554;7.108;2023-03-11T21:28:46;-1.19;88.00
15290;DHT22;7746;50.554;7.108;2023-03-11T21:31:16;-1.25;87.91
15290;DHT22;7746;50.554;7.108;2023-03-11T21:33:44;-1.37;88.26
15290;DHT22;7746;50.554;7.108;2023-03-11T21:36:12;-1.43;88.65
15290;DHT22;7746;50.554;7.108;2023-03-11T21:38:40;-1.44;88.61
15290;DHT22;7746;50.554;7.108;2023-03-11T21:41:09;-1.44;88.93
15290;DHT22;7746;50.554;7.108;2023-03-11T21:43:37;-1.43;88.93
15290;DHT22;7746;50.554;7.108;2023-03-11T21:46:07;-1.37;88.84
15290;DHT22;7746;50.554;7.108;2023-03-11T21:48:35;-1.35;89.01
15290;DHT22;7746;50.554;7.108;2023-03-11T21:51:03;-1.33;88.97
15290;DHT22;7746;50.554;7.108;2023-03-11T21:53:30;-1.36;88.90
15290;DHT22;7746;50.554;7.108;2023-03-11T21:55:57;-1.33;88.88
15290;DHT22;7746;50.554;7.108;2023-03-11T21:58:25;-1.33;89.01
15290;DHT22;7746;50.554;7.108;2023-03-11T22:00:53;-1.30;89.04
15290;DHT22;7746;50.554;7.108;2023-03-11T22:03:21;-1.27;89.36
15290;DHT22;7746;50.554;7.108;2023-03-11T22:05:53;-1.27;89.40
15290;DHT22;7746;50.554;7.108;2023-03-11T22:08:21;-1.23;89.52
15290;DHT22;7746;50.554;7.108;2023-03-11T22:10:48;-1.26;88.86
15290;DHT22;7746;50.554;7.108;2023-03-11T22:13:15;-1.20;88.84
15290;DHT22;7746;50.554;7.108;2023-03-11T22:15:42;-1.17;88.70
15290;DHT22;7746;50.554;7.108;2023-03-11T22:18:10;-1.06;88.59
15290;DHT22;7746;50.554;7.108;2023-03-11T22:20:39;-0.92;88.41
15290;DHT22;7746;50.554;7.108;2023-03-11T22:23:06;-0.99;88.45
15290;DHT22;7746;50.554;7.108;2023-03-11T22:25:33;-1.02;88.24
15290;DHT22;7746;50.554;7.108;2023-03-11T22:28:00;-0.98;88.31
15290;DHT22;7746;50.554;7.108;2023-03-11T22:30:28;-0.86;88.37
15290;DHT22;7746;50.554;7.108;2023-03-11T22:32:55;-0.75;88.20
15290;DHT22;7746;50.554;7.108;2023-03-11T22:35:22;-0.67;88.25
15290;DHT22;7746;50.554;7.108;2023-03-11T22:37:51;-0.60;87.93
15290;DHT22;7746;50.554;7.108;2023-03-11T22:40:18;-0.72;88.14
15290;DHT22;7746;50.554;7.108;2023-03-11T22:42:45;-0.78;88.20
15290;DHT22;7746;50.554;7.108;2023-03-11T22:45:12;-0.71;88.27
15290;DHT22;7746;50.554;7.108;2023-03-11T22:47:40;-0.72;87.96
15290;DHT22;7746;50.554;7.108;2023-03-11T22:50:08;-0.75;88.12
15290;DHT22;7746;50.554;7.108;2023-03-11T22:52:35;-0.81;88.49
15290;DHT22;7746;50.554;7.108;2023-03-11T22:55:04;-0.74;88.27
15290;DHT22;7746;50.554;7.108;2023-03-11T22:57:31;-0.68;88.00
15290;DHT22;7746;50.554;7.108;2023-03-11T23:00:06;-0.62;87.73
15290;DHT22;7746;50.554;7.108;2023-03-11T23:02:35;-0.68;87.99
15290;DHT22;7746;50.554;7.108;2023-03-11T23:05:03;-0.75;88.16
15290;DHT22;7746;50.554;7.108;2023-03-11T23:07:31;-0.78;88.05
15290;DHT22;7746;50.554;7.108;2023-03-11T23:09:58;-0.81;88.09
15290;DHT22;7746;50.554;7.108;2023-03-11T23:12:26;-0.77;88.12
15290;DHT22;7746;50.554;7.108;2023-03-11T23:14:53;-0.68;88.10
15290;DHT22;7746;50.554;7.108;2023-03-11T23:17:21;-0.68;88.14
15290;DHT22;7746;50.554;7.108;2023-03-11T23:19:48;-0.61;88.17
15290;DHT22;7746;50.554;7.108;2023-03-11T23:22:15;-0.60;88.12
15290;DHT22;7746;50.554;7.108;2023-03-11T23:24:42;-0.60;88.08
15290;DHT22;7746;50.554;7.108;2023-03-11T23:27:09;-0.68;88.48
15290;DHT22;7746;50.554;7.108;2023-03-11T23:29:38;-0.69;88.55
15290;DHT22;7746;50.554;7.108;2023-03-11T23:32:06;-0.64;88.73
15290;DHT22;7746;50.554;7.108;2023-03-11T23:34:34;-0.58;88.71
15290;DHT22;7746;50.554;7.108;2023-03-11T23:37:01;-0.64;88.95
15290;DHT22;7746;50.554;7.108;2023-03-11T23:39:28;-0.54;88.90
15290;DHT22;7746;50.554;7.108;2023-03-11T23:41:55;-0.51;88.27
15290;DHT22;7746;50.554;7.108;2023-03-11T23:44:23;-0.53;88.56
15290;DHT22;7746;50.554;7.108;2023-03-11T23:46:51;-0.61;88.99
15290;DHT22;7746;50.554;7.108;2023-03-11T23:49:18;-0.54;88.72
15290;DHT22;7746;50.554;7.108;2023-03-11T23:51:45;-0.48;88.55
15290;DHT22;7746;50.554;7.108;2023-03-11T23:54:13;-0.50;88.44
15290;DHT22;7746;50.554;7.108;2023-03-11T23:56:41;-0.53;88.40
15290;DHT22;7746;50.554;7.108;2023-03-11T23:59:09;-0.62;89.01
